Portada
METAR-TAF:

METAR-TAF

Aeroports :

Aeroport Internacional de Tan Son Nhat

Ciutat Ho Chi Minh, Vietnam

latitud: 10-49N, longitud: 106-40E, altitud: 19 m

Observació

L'informe es va fer fa 14 minuts, a les 10:30 UTC
Vent 6 kt del Nord-Est, variant entre Nord i Est/Nord-Est
Temperatura 31°C
Humitat 46%
Pressió 1009 hPa
Visibilitat 10 km o més
Escasses núvols a una alçada de 1700 ft
Núvols disperses a una alçada de 5000 ft

METAR: VVTS 151030Z 04006KT 010V070 9999 FEW017 SCT050 31/18 Q1009 NOSIG

Hora: 17:44 (10:44 UTC)

Pronòstic

L'informe es va fer fa 5 hores i 44 minuts, a les 05:00 UTC
Pronòstic vàlid del 15 a les 06 UTC al 16 a les 12 UTC
Vent 7 kt del Est
Visibilitat 10 km o més
Escasses núvols a una alçada de 1700 ft

TAF: VVTS 150500Z 1506/1612 10007KT 9999 FEW017

Observacions i pronòstics meteorològics de més de 4000 aeroports (METAR i TAF).

Les estacions disponibles són els punts grocs i vermells al mapa.

Posi el ratolí al punt desitjat per veure el nom de l'estació.

Feu clic per veure les observacions i els pronòstics meteorològics.

Per canviar el mapa: feu clic els botons verds amb una creu de color negre per apropar; al botó verd amb un guió per allunyar la imatge; o en les fletxes verdes per a mapes adjacents.


METAR-TAF: